MyMeetScores TOP 100 TOP TEAMS UPCOMING MEETS COMPLETED MEETS LATEST MEETS ADD SCORES SUPPORT SHOP
Personalized OrnamentsShop@
MyMeetScores
 
Alicia Scianna, Chicago Park Dist - MyMeetScores.com
Alicia Scianna
Chicago Park Dist
Personal Bests
Level Vault Bars Beam Floor AA
3 9.250 9.225 9.175 9.225 36.550
4 8.625 9.350 9.550 8.925 36.400
7 9.400 9.750 9.500 9.300 37.225
8 8.600 9.625 9.375 9.325 35.975
9 9.125 8.850 9.200 8.775 34.175
Meet Scores
Date Meet Team Session Level Division Vault Bars Beam Floor AA
2024-02-23 2024 Great Western Invitational - Women%27s Chicago Park Dist 2A 9 Cowgirl 0.000 8T 8.050 6 6.850 8 0.000 9T 14.900 8
2024-01-26 UGA Invitational Chicago Park District A10 9 Senior 0.000 12T 0.000 10T 8.475 6 0.000 13T 8.475 14
2024-01-12 St Jude Benefit Meet 2024 Chicago Park Dist 7B 9 Sr B 0.000 8T 0.000 8T 6.725 5 0.000 9 6.725 9
2023-04-13 2023 Women%27s Region 5 Level 9/10 Regional Cha Chicago Park District 05 9 Sr 5 8.875 14T 8.600 10 7.925 17 8.775 11 34.175 16
2023-03-17 Illinois State meet Level 3, 9 & 10 Chicago Park District 05 9 Sr B 9.125 17 8.725 10 8.025 18 8.250 21 34.125 16
2023-02-09 Legacy Elite Classic Chicago Park District 6 9 Jr 8.550 12 8.850 4 8.000 9 8.700 10 34.100 6
2023-01-13 St Jude Benefit Meet Chicago Park District 5B 9 Sr A 8.200 10 8.575 4 9.200 3 8.050 10 34.025 7
2022-12-16 Aspire Classic 2022 Chicago Park Dist B02 9 Older 8.300 7 8.050 3 8.575 4 8.625 4 33.550 5
2022-12-02 Ultimate Wish Classic Chicago Park District 3 9 Sr 7.800 8 8.500 4 8.575 2 8.300 7 33.175 5
2022-03-04 2022 Flip'r S.O.U.L. Invitational Chicago Park District 6 9 JR 0.000 10 8.275 5 0.000 10 0.000 10 8.275 10
2022-02-11 SCGA Classic 2022 Chicago Park District F3 9 Jr A 0.000 9T 7.650 6 8.625 5 0.000 9T 16.275 9
2022-01-21 King Arthur Invitational 2022 Chicago Park Dist 4 9 Junior 0.000 4 8.225 3 7.925 4 0.000 4 16.150 4
2021-12-17 Aspire Classic 2021 Chicago Park Dist 7 9 Older 0.000 10T 8.500 4 8.375 6 0.000 12T 16.875 9
2020-02-29 Yurchenko Invitational Chicago Park Dist 2 8 Level 8 Junior A 8.500 5 9.475 1 8.650 7 9.250 5 35.875 3
2020-01-10 St Jude Benefit Meet Chicago Park Dist 8C 8 Jr B 0.000 12T 9.575 1 9.125 5 0.000 13T 18.700 12
2019-12-20 Aspire Classic - 2019 Chicago Park Dist 2A 8 Younger 0.000 10T 9.475 1T 9.375 2 0.000 10T 18.850 10
2019-12-06 Gymnastics on the Grand Chicago Park Dist 3B 8 Jr B 7.900 12 8.100 7 9.325 3 9.225 5 34.550 7
2019-04-26 Level 7/8 Region 5 Regionals Chicago Park Dist 7B 8 JRB1 7.950 28 9.325 15T 9.325 16T 9.325 16T 35.925 23
2019-03-29 Illinois Level 7 & 8 State Meet Chicago Park Dist 2 8 Jr B 8.375 21 9.625 11T 9.200 16 8.775 26 35.975 21
2019-02-22 Jaycie Phelps Midwest Showdown Chicago Park Dist 7A 8 Junior A 8.400 8T 8.600 8 9.275 3 8.625 8 34.900 8
2019-02-08 IGI Chicago Style 2019 Chicago Park Dist 41 8 531 Wacker L8 A 8.000 20 7.900 18 9.325 4 8.950 11 34.175 15
2019-01-25 UGA Invitational Chicago Park Dist A04 8 Jr A 8.250 10 9.375 6 9.300 6 8.825 12 35.750 8
2019-01-11 St Jude Benefit Meet Chicago Park Dist 9B 8 Jr A 8.500 9 8.375 10 8.900 7 8.850 8 34.625 8
2018-12-14 2018 Aspire Classic Chicago Park Dist 4 8 Younger 8.600 11 9.125 11T 8.900 12T 8.850 13 35.475 10
2018-11-30 Ultimate Wish Classic Chicago Park Dist 4 8 CH 8.100 10 8.525 11 9.250 3 8.750 11 34.625 9
2018-04-20 2018 Region 5 Levels 7/8 Championships Chicago Park Dist 09A 7 Jr B1 9.400 14T 8.600 25T 9.250 25T 9.250 24 36.500 25
2018-03-23 Illinois Level 7 & 8 State Competition Chicago Park Dist 10 7 Ch C 9.075 17 9.750 5 9.250 17 9.150 18 37.225 14
2018-02-16 Big Classic Chicago Park Dist 3A 7 Junior A 9.125 5 9.050 6T 8.350 12 9.300 5 35.825 9
2018-02-08 Hal's Harley-Davidson Invite Womens Chicago Park Dist O03 7 11 yrs. 8.600 16 9.325 5 9.225 5 8.975 6T 36.125 7T
2018-01-26 King Arthur Invitational Chicago Park Dist 1 7 JR 8.825 8T 9.025 6 8.300 11 8.150 11T 34.300 10
2017-12-15 2017 Aspire Classic Chicago Park Dist 4 7 Younger 9.125 17 9.000 8 8.475 16 9.050 9 35.650 10
2017-12-01 Ultimate Wish Classic Chicago Park Dist 3 7 JR1 9.025 13T 9.450 4T 9.500 3 9.050 15 37.025 6
2017-02-24 Kinetic Classic Chicago Park Dist 5,6 4 All Ages 8.550 85T 9.325 23T 9.250 38T 8.925 69T 36.050 50
2017-01-13 St Jude Benefit Meet Chicago Park Dist 3A 4 Jr C 8.625 2T 9.325 3 9.550 3 8.900 5 36.400 3
2016-12-02 Ultimate Wish Classic Chicago Park Dist 14 4 Junior 8.400 12 9.350 2 9.050 11 8.400 15 35.200 8
2016-03-10 2016 Illinois Level 4 State Meet Chicago Park Dist All 4 Child-E 7.850 31 6.150 31 9.350 4 8.350 25 31.700 31
2016-02-12 IGI Chicago Style Gymnastics Meet Chicago Park Dist 612 4 JrB 8.050 17 6.750 22 8.575 15 7.950 22 31.325 22
2015-12-04 2015 Ultimate Wish Classic Chicago Park Dist 11A 4 All 7.500 68 7.450 61 8.750 34 8.050 56 31.750 60
2015-03-12 2015 Illinois Level 3 State Championship Chicago Park Dist All 3 Youth-A 9.150 22 9.225 11 9.175 15 9.000 19 36.550 16
2015-02-13 IGI Chicago Style Gymnastics Meet Chicago Park Dist 211 3 8 & younge 9.250 11T 9.025 9 8.550 21T 9.225 9 36.050 10
2014-02-07 IGI Chicago Style Gymnastics Meet Chicago Park Dist 232 3 8 & Under 8.450 40 7.950 36 7.800 40T 7.600 39T 31.800 39